Terminal Aerodrome Forecast
Issued by NWS

Home | Current Version | Previous Version | Graphics & Text | Print | Product List | Glossary On
Versions: 1 2 3 4 5 6 7 8 9 10 11 12 13 14 15 16 17
000
FTUS43 KMPX 221100
TAFRWF
TAF
KRWF 221128Z 2212/2312 15014G22KT P6SM VCSH BKN050
     FM221600 16018G24KT P6SM SCT025 BKN040
     FM222200 17016KT P6SM SCT020 BKN120
     FM230000 17010KT 4SM -SHRA BR BKN020 OVC030
     FM230500 19008KT 6SM BR SCT020 BKN040
     FM230900 24005KT 4SM BR FEW030=

USA.gov is the U.S. government's official web portal to all federal, state and local government web resources and services.